Orlando, Florida
Traffic Map
Current Weather Conditions
Orlando, Florida
Clear
Clear
80°
Feels Like: 83°
Wind Chill: 80° Ceiling: Unl
Heat Index: 83° Visibility: 10mi
Dew Point: 70° Wind: 0mph
Humidity: 71% Direction: ° ()
Pressure: 30.08in Gusts: 0mph
Raw Report DataKORL 291253Z 00000KT 10SM CLR 27/21 A3008 RMK AO2 SLP187 T02670211
Traffic Incident Summary
Active as of:
Severity:
Category:
InformationThere was an issue retrieving the traffic information for this location. Please try a different location or try again shortly.
Advertisements
Track Severe Weather on mobile